createdAt,value
2019-05-01T00:00:51.989Z,0.00
2019-05-01T00:01:52.002Z,0.00
2019-05-01T00:02:51.949Z,0.00
2019-05-01T00:03:53.645Z,0.00
2019-05-01T00:04:51.966Z,0.00
2019-05-01T00:05:52.013Z,0.00
2019-05-01T00:06:51.981Z,0.00
2019-05-01T00:07:51.937Z,0.00
2019-05-01T00:08:51.903Z,0.00
2019-05-01T00:09:51.872Z,0.00
2019-05-01T00:10:51.885Z,0.00
2019-05-01T00:11:51.864Z,0.00
2019-05-01T00:12:51.897Z,0.00
2019-05-01T00:13:51.821Z,0.00
2019-05-01T00:14:51.803Z,0.00
2019-05-01T00:15:51.829Z,0.00
2019-05-01T00:16:51.814Z,0.00
2019-05-01T00:17:52.155Z,0.00
2019-05-01T00:18:51.774Z,0.00
2019-05-01T00:19:51.764Z,0.00
2019-05-01T00:20:51.764Z,0.00
2019-05-01T00:21:51.757Z,0.00
2019-05-01T00:22:51.768Z,0.00
2019-05-01T00:23:51.727Z,0.00
2019-05-01T00:24:51.697Z,0.00
2019-05-01T00:25:51.693Z,0.00
2019-05-01T00:26:51.677Z,0.00
2019-05-01T00:27:51.707Z,0.00
2019-05-01T00:28:51.662Z,0.00
2019-05-01T00:29:51.672Z,0.00
2019-05-01T00:30:51.633Z,0.00
2019-05-01T00:31:51.655Z,0.00
2019-05-01T00:32:51.701Z,0.00
2019-05-01T00:33:51.786Z,0.00
2019-05-01T00:34:51.610Z,0.00
2019-05-01T00:35:51.584Z,0.00
2019-05-01T00:36:51.576Z,0.00
2019-05-01T00:37:51.597Z,0.00
2019-05-01T00:38:51.609Z,0.00
2019-05-01T00:39:51.531Z,0.00
2019-05-01T00:40:51.529Z,0.00
2019-05-01T00:41:51.603Z,0.00
2019-05-01T00:42:51.549Z,0.00
2019-05-01T00:43:51.524Z,0.00
2019-05-01T00:44:51.499Z,0.00
2019-05-01T00:45:51.463Z,0.00
2019-05-01T00:46:51.449Z,0.00
2019-05-01T00:47:51.490Z,0.00
2019-05-01T00:48:51.535Z,0.00
2019-05-01T00:49:51.429Z,0.00
2019-05-01T00:50:51.435Z,0.00
2019-05-01T00:51:51.419Z,0.00
2019-05-01T00:52:51.470Z,0.00
2019-05-01T00:53:51.417Z,0.00
2019-05-01T00:54:51.379Z,0.00
2019-05-01T00:55:51.367Z,0.00
2019-05-01T00:56:51.363Z,0.00
2019-05-01T00:57:51.393Z,0.00
2019-05-01T00:58:51.399Z,0.00
2019-05-01T00:59:51.526Z,0.00
2019-05-01T01:00:51.319Z,0.00
2019-05-01T01:01:54.157Z,0.00
2019-05-01T01:02:51.345Z,0.00
2019-05-01T01:03:51.269Z,0.00
2019-05-01T01:04:51.288Z,0.00
2019-05-01T01:05:51.253Z,0.00
2019-05-01T01:06:51.240Z,0.00
2019-05-01T01:07:51.313Z,0.00
2019-05-01T01:08:51.217Z,0.00
2019-05-01T01:09:51.209Z,0.00
2019-05-01T01:10:51.374Z,0.00
2019-05-01T01:11:51.201Z,0.00
2019-05-01T01:12:51.205Z,0.00
2019-05-01T01:13:51.230Z,0.00
2019-05-01T01:14:51.154Z,0.00
2019-05-01T01:15:51.144Z,0.00
2019-05-01T01:16:51.159Z,0.00
2019-05-01T01:17:51.155Z,0.00
2019-05-01T01:18:51.109Z,0.00
2019-05-01T01:19:51.284Z,0.00
2019-05-01T01:20:51.172Z,0.00
2019-05-01T01:21:51.117Z,0.00
2019-05-01T01:22:51.148Z,0.00
2019-05-01T01:23:51.150Z,0.00
2019-05-01T01:24:51.893Z,0.00
2019-05-01T01:25:51.173Z,0.00
2019-05-01T01:26:51.080Z,0.00
2019-05-01T01:27:51.115Z,0.00
2019-05-01T01:28:51.017Z,0.00
2019-05-01T01:29:51.001Z,0.00
2019-05-01T01:30:56.435Z,0.00
2019-05-01T01:31:51.979Z,0.00
2019-05-01T01:32:50.979Z,0.00
2019-05-01T01:33:50.941Z,0.00
2019-05-01T01:34:51.053Z,0.00
2019-05-01T01:35:50.919Z,0.00
2019-05-01T01:36:50.961Z,0.00
2019-05-01T01:37:51.130Z,0.00
2019-05-01T01:38:50.903Z,0.00
2019-05-01T01:39:51.025Z,0.00
2019-05-01T01:40:50.950Z,0.00
2019-05-01T01:41:50.864Z,0.00
2019-05-01T01:42:50.969Z,0.00
2019-05-01T01:43:50.829Z,0.00
2019-05-01T01:44:50.954Z,0.00
2019-05-01T01:45:50.888Z,0.00
2019-05-01T01:46:50.895Z,0.00
2019-05-01T01:47:50.875Z,0.00
2019-05-01T01:48:50.917Z,0.00
2019-05-01T01:49:50.761Z,0.00
2019-05-01T01:50:50.781Z,0.00
2019-05-01T01:51:50.849Z,0.00
2019-05-01T01:52:50.879Z,0.00
2019-05-01T01:53:50.769Z,0.00
2019-05-01T01:54:50.719Z,0.00
2019-05-01T01:55:50.760Z,0.00
2019-05-01T01:56:50.727Z,0.00
2019-05-01T01:57:50.691Z,0.00
2019-05-01T01:58:52.794Z,0.00
2019-05-01T01:59:50.699Z,0.00
2019-05-01T02:00:50.678Z,0.00
2019-05-01T02:01:50.635Z,0.00
2019-05-01T02:02:50.661Z,0.00
2019-05-01T02:03:50.807Z,0.00
2019-05-01T02:04:50.601Z,0.00
2019-05-01T02:05:50.590Z,0.00
2019-05-01T02:06:50.607Z,0.00
2019-05-01T02:07:50.581Z,0.00
2019-05-01T02:08:56.583Z,0.00
2019-05-01T02:09:54.235Z,0.00
2019-05-01T02:10:50.569Z,0.00
2019-05-01T02:11:50.533Z,0.00
2019-05-01T02:12:51.775Z,0.00
2019-05-01T02:13:50.587Z,0.00
2019-05-01T02:14:50.502Z,0.00
2019-05-01T02:15:50.642Z,0.00
2019-05-01T02:16:50.532Z,0.00
2019-05-01T02:17:50.488Z,0.00
2019-05-01T02:18:50.496Z,0.00
2019-05-01T02:19:50.527Z,0.00
2019-05-01T02:20:50.482Z,0.00
2019-05-01T02:21:50.535Z,0.00
2019-05-01T02:22:50.416Z,0.00
2019-05-01T02:23:50.429Z,0.00
2019-05-01T02:24:50.459Z,0.00
2019-05-01T02:25:50.528Z,0.00
2019-05-01T02:26:50.363Z,0.00
2019-05-01T02:27:50.433Z,0.00
2019-05-01T02:28:50.426Z,0.00
2019-05-01T02:29:50.529Z,0.00
2019-05-01T02:30:50.324Z,0.00
2019-05-01T02:31:50.295Z,0.00
2019-05-01T02:32:50.298Z,0.00
2019-05-01T02:33:50.434Z,0.00
2019-05-01T02:34:50.333Z,0.00
2019-05-01T02:35:50.267Z,0.00
2019-05-01T02:36:50.276Z,0.00
2019-05-01T02:37:50.367Z,0.00
2019-05-01T02:38:50.310Z,0.00
2019-05-01T02:39:50.279Z,0.00
2019-05-01T02:40:50.449Z,0.00
2019-05-01T02:41:50.252Z,0.00
2019-05-01T02:42:50.185Z,0.00
2019-05-01T02:43:50.222Z,0.00
2019-05-01T02:44:50.223Z,0.00
2019-05-01T02:45:50.172Z,0.00
2019-05-01T02:46:50.231Z,0.00
2019-05-01T02:47:50.164Z,0.00
2019-05-01T02:48:52.828Z,0.00
2019-05-01T02:49:50.135Z,0.00
2019-05-01T02:50:50.194Z,0.00
2019-05-01T02:51:50.088Z,0.00
2019-05-01T02:52:50.110Z,0.00
2019-05-01T02:53:50.104Z,0.00
2019-05-01T02:54:50.040Z,0.00
2019-05-01T02:55:50.300Z,0.00
2019-05-01T02:56:50.029Z,0.00
2019-05-01T02:57:50.076Z,0.00
2019-05-01T02:58:50.188Z,0.00
2019-05-01T02:59:50.047Z,0.00
2019-05-01T03:00:50.034Z,0.00
2019-05-01T03:01:50.153Z,0.00
2019-05-01T03:02:49.993Z,0.00
2019-05-01T03:03:49.984Z,0.00
2019-05-01T03:04:50.048Z,0.00
2019-05-01T03:05:49.953Z,0.00
2019-05-01T03:06:50.052Z,0.00
2019-05-01T03:07:49.907Z,0.00
2019-05-01T03:08:50.006Z,0.00
2019-05-01T03:09:49.906Z,0.00
2019-05-01T03:10:49.928Z,0.00
2019-05-01T03:11:49.990Z,0.00
2019-05-01T03:12:50.055Z,0.00
2019-05-01T03:13:49.880Z,0.00
2019-05-01T03:14:49.863Z,0.00
2019-05-01T03:15:49.943Z,0.00
2019-05-01T03:16:49.837Z,0.00
2019-05-01T03:17:49.825Z,0.00
2019-05-01T03:18:49.963Z,0.00
2019-05-01T03:19:49.781Z,0.00
2019-05-01T03:20:49.866Z,0.00
2019-05-01T03:21:49.808Z,0.00
2019-05-01T03:22:49.744Z,0.00
2019-05-01T03:23:49.815Z,0.00
2019-05-01T03:24:49.725Z,0.00
2019-05-01T03:25:49.726Z,0.00
2019-05-01T03:26:49.684Z,0.00
2019-05-01T03:27:49.698Z,0.00
2019-05-01T03:28:49.705Z,0.00
2019-05-01T03:29:49.660Z,0.00
2019-05-01T03:30:49.655Z,0.00
2019-05-01T03:32:14.588Z,0.00
2019-05-01T03:32:50.620Z,0.00
2019-05-01T03:33:49.663Z,4.00
2019-05-01T03:34:52.594Z,4.00
2019-05-01T03:35:49.601Z,4.00
2019-05-01T03:36:49.618Z,4.00
2019-05-01T03:37:49.565Z,0.00
2019-05-01T03:38:49.611Z,4.00
2019-05-01T03:39:49.661Z,4.00
2019-05-01T03:40:49.543Z,8.00
2019-05-01T03:41:49.518Z,4.00
2019-05-01T03:42:49.540Z,8.00
2019-05-01T03:43:49.551Z,8.00
2019-05-01T03:44:49.514Z,12.00
2019-05-01T03:45:49.482Z,12.00
2019-05-01T03:46:49.517Z,16.00
2019-05-01T03:47:49.522Z,16.00
2019-05-01T03:48:50.178Z,16.00
2019-05-01T03:49:49.548Z,20.00
2019-05-01T03:50:49.434Z,20.00
2019-05-01T03:51:49.483Z,24.00
2019-05-01T03:52:49.429Z,28.00
2019-05-01T03:53:49.445Z,28.00
2019-05-01T03:54:49.446Z,32.00
2019-05-01T03:55:49.366Z,40.00
2019-05-01T03:56:49.421Z,44.00
2019-05-01T03:57:49.374Z,44.00
2019-05-01T03:58:49.364Z,48.00
2019-05-01T03:59:49.370Z,56.00
2019-05-01T04:00:49.318Z,64.00
2019-05-01T04:01:49.302Z,72.00
2019-05-01T04:02:49.319Z,80.00
2019-05-01T04:03:52.176Z,84.00
2019-05-01T04:04:49.442Z,92.00
2019-05-01T04:05:49.270Z,96.00
2019-05-01T04:06:49.247Z,112.00
2019-05-01T04:07:49.274Z,120.00
2019-05-01T04:08:49.247Z,136.00
2019-05-01T04:09:49.256Z,144.00
2019-05-01T04:10:49.228Z,148.00
2019-05-01T04:11:49.194Z,156.00
2019-05-01T04:12:49.200Z,168.00
2019-05-01T04:13:49.223Z,180.00
2019-05-01T04:14:49.194Z,192.00
2019-05-01T04:15:49.208Z,212.00
2019-05-01T04:16:49.138Z,228.00
2019-05-01T04:17:49.126Z,252.00
2019-05-01T04:18:49.122Z,268.00
2019-05-01T04:19:49.217Z,292.00
2019-05-01T04:20:49.110Z,312.00
2019-05-01T04:21:49.130Z,328.00
2019-05-01T04:22:49.071Z,332.00
2019-05-01T04:23:49.660Z,352.00
2019-05-01T04:24:49.076Z,376.00
2019-05-01T04:25:49.076Z,396.00
2019-05-01T04:26:49.029Z,412.00
2019-05-01T04:27:49.026Z,440.00
2019-05-01T04:28:49.012Z,452.00
2019-05-01T04:29:49.029Z,480.00
2019-05-01T04:30:49.012Z,484.00
2019-05-01T04:31:49.059Z,512.00
2019-05-01T04:32:52.483Z,568.00
2019-05-01T04:33:48.962Z,596.00
2019-05-01T04:34:49.002Z,624.00
2019-05-01T04:35:48.948Z,652.00
2019-05-01T04:36:48.966Z,664.00
2019-05-01T04:37:48.915Z,692.00
2019-05-01T04:38:48.903Z,700.00
2019-05-01T04:39:49.035Z,716.00
2019-05-01T04:40:48.899Z,716.00
2019-05-01T04:41:48.874Z,752.00
2019-05-01T04:42:48.875Z,828.00
2019-05-01T04:43:48.853Z,916.00
2019-05-01T04:44:48.903Z,912.00
2019-05-01T04:45:48.823Z,916.00
2019-05-01T04:46:48.842Z,956.00
2019-05-01T04:47:48.865Z,972.00
2019-05-01T04:48:49.672Z,1044.00
2019-05-01T04:49:48.773Z,1092.00
2019-05-01T04:50:48.894Z,1132.00
2019-05-01T04:51:48.791Z,1108.00
2019-05-01T04:52:48.740Z,1144.00
2019-05-01T04:53:48.739Z,1184.00
2019-05-01T04:54:48.711Z,1152.00
2019-05-01T04:55:48.806Z,1196.00
2019-05-01T04:56:48.716Z,1224.00
2019-05-01T04:57:48.679Z,1256.00
2019-05-01T04:58:48.685Z,1272.00
2019-05-01T04:59:48.723Z,1300.00
2019-05-01T05:00:48.693Z,1340.00
2019-05-01T05:01:48.678Z,1340.00
2019-05-01T05:02:48.627Z,1396.00
2019-05-01T05:03:48.748Z,1436.00
2019-05-01T05:04:48.619Z,1420.00
2019-05-01T05:05:48.650Z,1408.00
2019-05-01T05:06:48.619Z,1436.00
2019-05-01T05:07:48.609Z,1488.00
2019-05-01T05:08:48.575Z,1560.00
2019-05-01T05:09:48.570Z,1600.00
2019-05-01T05:10:48.570Z,1648.00
2019-05-01T05:11:48.535Z,1652.00
2019-05-01T05:12:48.566Z,1632.00
2019-05-01T05:13:48.585Z,1692.00
2019-05-01T05:14:48.501Z,1716.00
2019-05-01T05:15:48.519Z,1732.00
2019-05-01T05:16:48.500Z,1764.00
2019-05-01T05:17:48.479Z,1884.00
2019-05-01T05:18:48.504Z,2016.00
2019-05-01T05:19:48.478Z,2048.00
2019-05-01T05:20:48.504Z,2096.00
2019-05-01T05:21:48.453Z,2060.00
2019-05-01T05:22:48.407Z,2112.00
2019-05-01T05:23:48.427Z,2264.00
2019-05-01T05:24:48.390Z,2280.00
2019-05-01T05:25:48.473Z,2264.00
2019-05-01T05:26:48.365Z,2468.00
2019-05-01T05:27:48.357Z,2512.00
2019-05-01T05:28:48.349Z,2596.00
2019-05-01T05:29:48.377Z,2644.00
2019-05-01T05:30:48.351Z,2644.00
2019-05-01T05:31:48.329Z,2732.00
2019-05-01T05:32:48.307Z,2672.00
2019-05-01T05:33:48.348Z,2660.00
2019-05-01T05:34:48.341Z,2760.00
2019-05-01T05:35:48.289Z,2832.00
2019-05-01T05:36:48.270Z,2840.00
2019-05-01T05:37:48.267Z,2908.00
2019-05-01T05:38:48.247Z,2908.00
2019-05-01T05:39:48.226Z,2900.00
2019-05-01T05:40:48.219Z,2752.00
2019-05-01T05:41:48.279Z,2780.00
2019-05-01T05:42:48.199Z,2824.00
2019-05-01T05:43:48.209Z,2840.00
2019-05-01T05:44:48.178Z,2864.00
2019-05-01T05:45:48.163Z,3004.00
2019-05-01T05:46:48.198Z,3076.00
2019-05-01T05:47:48.139Z,3236.00
2019-05-01T05:48:48.146Z,3156.00
2019-05-01T05:49:48.164Z,3244.00
2019-05-01T05:50:48.100Z,3252.00
2019-05-01T05:51:48.119Z,3280.00
2019-05-01T05:52:48.080Z,3324.00
2019-05-01T05:53:48.065Z,3464.00
2019-05-01T05:54:48.079Z,3492.00
2019-05-01T05:55:48.093Z,3544.00
2019-05-01T05:56:48.061Z,3460.00
2019-05-01T05:57:48.025Z,3300.00
2019-05-01T05:58:48.022Z,3264.00
2019-05-01T05:59:48.031Z,3352.00
2019-05-01T06:00:48.003Z,3456.00
2019-05-01T06:01:48.006Z,3480.00
2019-05-01T06:02:47.978Z,3520.00
2019-05-01T06:03:47.965Z,3540.00
2019-05-01T06:04:47.942Z,3572.00
2019-05-01T06:05:47.933Z,3500.00
2019-05-01T06:06:47.985Z,3408.00
2019-05-01T06:07:48.019Z,3296.00
2019-05-01T06:08:47.923Z,3264.00
2019-05-01T06:09:48.540Z,3272.00
2019-05-01T06:10:47.875Z,3336.00
2019-05-01T06:11:47.911Z,3484.00
2019-05-01T06:12:48.601Z,3796.00
2019-05-01T06:13:47.889Z,4124.00
2019-05-01T06:14:47.835Z,4500.00
2019-05-01T06:15:49.163Z,4848.00
2019-05-01T06:16:52.045Z,4784.00
2019-05-01T06:17:48.805Z,4572.00
2019-05-01T06:18:47.808Z,4420.00
2019-05-01T06:19:49.642Z,4504.00
2019-05-01T06:20:47.790Z,4656.00
2019-05-01T06:21:47.753Z,4656.00
2019-05-01T06:22:47.765Z,4504.00
2019-05-01T06:23:47.773Z,4452.00
2019-05-01T06:24:47.719Z,4536.00
2019-05-01T06:25:47.727Z,4520.00
2019-05-01T06:26:47.697Z,4312.00
2019-05-01T06:27:49.207Z,4160.00
2019-05-01T06:28:47.671Z,4480.00
2019-05-01T06:29:47.659Z,4456.00
2019-05-01T06:30:48.879Z,4656.00
2019-05-01T06:31:47.677Z,4996.00
2019-05-01T06:32:47.664Z,5368.00
2019-05-01T06:33:48.634Z,5028.00
2019-05-01T06:34:48.603Z,4840.00
2019-05-01T06:35:47.628Z,4936.00
2019-05-01T06:36:49.745Z,4820.00
2019-05-01T06:37:47.635Z,4720.00
2019-05-01T06:38:47.587Z,4676.00
2019-05-01T06:39:49.669Z,4812.00
2019-05-01T06:40:47.545Z,4972.00
2019-05-01T06:41:47.541Z,5056.00
2019-05-01T06:42:50.137Z,5100.00
2019-05-01T06:43:47.529Z,5268.00
2019-05-01T06:44:47.493Z,5392.00
2019-05-01T06:45:51.694Z,5492.00
2019-05-01T06:46:48.501Z,6732.00
2019-05-01T06:47:47.461Z,8228.00
2019-05-01T06:48:48.834Z,9972.00
2019-05-01T06:49:48.434Z,10540.00
2019-05-01T06:50:50.317Z,10580.00
2019-05-01T06:51:48.086Z,9456.00
2019-05-01T06:52:48.439Z,8092.00
2019-05-01T06:53:47.447Z,7760.00
2019-05-01T06:54:47.767Z,8604.00
2019-05-01T06:55:51.310Z,9288.00
2019-05-01T06:56:47.513Z,9908.00
2019-05-01T06:57:47.405Z,10660.00
2019-05-01T06:58:51.050Z,10504.00
2019-05-01T06:59:48.398Z,10300.00
2019-05-01T07:00:47.343Z,10176.00
2019-05-01T07:01:47.329Z,9324.00
2019-05-01T07:02:47.303Z,8708.00
2019-05-01T07:04:02.811Z,9256.00
2019-05-01T07:04:48.287Z,10232.00
2019-05-01T07:05:54.197Z,10404.00
2019-05-01T07:06:48.263Z,9976.00
2019-05-01T07:07:47.988Z,9260.00
2019-05-01T07:08:48.316Z,9016.00
2019-05-01T07:09:49.382Z,9148.00
2019-05-01T07:10:47.261Z,9964.00
2019-05-01T07:11:52.281Z,10668.00
2019-05-01T07:12:49.129Z,11232.00
2019-05-01T07:13:47.204Z,11756.00
2019-05-01T07:14:50.831Z,11820.00
2019-05-01T07:15:47.441Z,11600.00
2019-05-01T07:16:47.207Z,11592.00
2019-05-01T07:17:47.799Z,11876.00
2019-05-01T07:18:47.168Z,12100.00
2019-05-01T07:19:47.115Z,12196.00
2019-05-01T07:20:50.965Z,12360.00
2019-05-01T07:21:47.115Z,11992.00
2019-05-01T07:22:47.093Z,10980.00
2019-05-01T07:23:47.862Z,10356.00
2019-05-01T07:24:49.092Z,9980.00
2019-05-01T07:25:47.042Z,9700.00
2019-05-01T07:26:48.113Z,9360.00
2019-05-01T07:27:47.089Z,9224.00
2019-05-01T07:28:47.089Z,9328.00
2019-05-01T07:29:46.997Z,9368.00
2019-05-01T07:30:49.998Z,9572.00
2019-05-01T07:31:47.976Z,9580.00
2019-05-01T07:32:49.693Z,8976.00
2019-05-01T07:33:51.114Z,9000.00
2019-05-01T07:34:49.007Z,9272.00
2019-05-01T07:35:46.932Z,9072.00
2019-05-01T07:36:50.178Z,8724.00
2019-05-01T07:37:46.911Z,8636.00
2019-05-01T07:38:46.991Z,8724.00
2019-05-01T07:39:49.868Z,8896.00
2019-05-01T07:40:46.884Z,9072.00
2019-05-01T07:41:46.913Z,9332.00
2019-05-01T07:42:48.251Z,9652.00
2019-05-01T07:43:46.888Z,9900.00
2019-05-01T07:44:46.863Z,10056.00
2019-05-01T07:45:46.831Z,10204.00
2019-05-01T07:46:48.796Z,10424.00
2019-05-01T07:47:47.942Z,10916.00
2019-05-01T07:48:46.826Z,12208.00
2019-05-01T07:49:47.765Z,14116.00
2019-05-01T07:50:47.877Z,16056.00
2019-05-01T07:51:46.781Z,16816.00
2019-05-01T07:52:47.637Z,16480.00
2019-05-01T07:53:47.779Z,15636.00
2019-05-01T07:54:47.279Z,14752.00
2019-05-01T07:55:48.657Z,14008.00
2019-05-01T07:56:46.693Z,13840.00
2019-05-01T07:57:46.690Z,13808.00
2019-05-01T07:58:47.614Z,13476.00
2019-05-01T07:59:46.663Z,12664.00
2019-05-01T08:00:46.735Z,12180.00
2019-05-01T08:01:49.895Z,11768.00
2019-05-01T08:02:46.663Z,11532.00
2019-05-01T08:03:46.667Z,11192.00
2019-05-01T08:04:46.618Z,10844.00
2019-05-01T08:05:46.767Z,10720.00
2019-05-01T08:06:46.607Z,11080.00
2019-05-01T08:07:46.575Z,11628.00
2019-05-01T08:08:46.581Z,12032.00
2019-05-01T08:09:50.340Z,12472.00
2019-05-01T08:10:46.539Z,13068.00
2019-05-01T08:11:46.561Z,13780.00
2019-05-01T08:12:46.642Z,14380.00
2019-05-01T08:13:46.596Z,14896.00
2019-05-01T08:14:47.685Z,15308.00
2019-05-01T08:15:47.482Z,15400.00
2019-05-01T08:16:46.514Z,15296.00
2019-05-01T08:17:48.769Z,15176.00
2019-05-01T08:18:47.561Z,15056.00
2019-05-01T08:19:46.459Z,14836.00
2019-05-01T08:20:50.434Z,14656.00
2019-05-01T08:21:46.408Z,14812.00
2019-05-01T08:22:46.437Z,15304.00
2019-05-01T08:23:47.107Z,15968.00
2019-05-01T08:24:46.461Z,16536.00
2019-05-01T08:25:46.365Z,16808.00
2019-05-01T08:26:46.390Z,16344.00
2019-05-01T08:27:46.367Z,15904.00
2019-05-01T08:28:46.331Z,15800.00
2019-05-01T08:29:46.368Z,15776.00
2019-05-01T08:30:47.982Z,15892.00
2019-05-01T08:31:47.334Z,15788.00
2019-05-01T08:32:46.372Z,15440.00
2019-05-01T08:33:49.958Z,15372.00
2019-05-01T08:34:49.196Z,15772.00
2019-05-01T08:35:46.312Z,16036.00
2019-05-01T08:36:47.265Z,16052.00
2019-05-01T08:37:46.231Z,16248.00
2019-05-01T08:38:46.333Z,16492.00
2019-05-01T08:39:46.280Z,16244.00
2019-05-01T08:40:46.221Z,15828.00
2019-05-01T08:41:46.188Z,15460.00
2019-05-01T08:42:46.183Z,15336.00
2019-05-01T08:43:48.858Z,15448.00
2019-05-01T08:44:47.215Z,15700.00
2019-05-01T08:45:46.193Z,16128.00
2019-05-01T08:46:46.866Z,16464.00
2019-05-01T08:47:46.157Z,16688.00
2019-05-01T08:48:46.111Z,16804.00
2019-05-01T08:49:49.468Z,16804.00
2019-05-01T08:50:46.081Z,16760.00
2019-05-01T08:51:46.082Z,16780.00
2019-05-01T08:52:47.478Z,16816.00
2019-05-01T08:53:46.069Z,16744.00
2019-05-01T08:54:46.076Z,16612.00
2019-05-01T08:55:47.128Z,16348.00
2019-05-01T08:56:46.033Z,16328.00
2019-05-01T08:57:46.031Z,16624.00
2019-05-01T08:58:49.498Z,16676.00
2019-05-01T08:59:46.023Z,16680.00
2019-05-01T09:00:46.013Z,16924.00
2019-05-01T09:01:50.581Z,17568.00
2019-05-01T09:02:46.992Z,18112.00
2019-05-01T09:03:49.677Z,18336.00
2019-05-01T09:04:46.986Z,18464.00
2019-05-01T09:05:45.923Z,18336.00
2019-05-01T09:06:45.918Z,17728.00
2019-05-01T09:07:45.996Z,17440.00
2019-05-01T09:08:45.931Z,17440.00
2019-05-01T09:09:47.401Z,17600.00
2019-05-01T09:10:45.871Z,17952.00
2019-05-01T09:11:45.870Z,18688.00
2019-05-01T09:12:46.887Z,19744.00
2019-05-01T09:13:45.907Z,20640.00
2019-05-01T09:14:45.859Z,20960.00
2019-05-01T09:15:48.307Z,20832.00
2019-05-01T09:16:45.842Z,20640.00
2019-05-01T09:17:45.787Z,20512.00
2019-05-01T09:18:45.801Z,20608.00
2019-05-01T09:19:45.817Z,20832.00
2019-05-01T09:20:45.789Z,20928.00
2019-05-01T09:21:45.749Z,21120.00
2019-05-01T09:22:45.771Z,21344.00
2019-05-01T09:23:46.302Z,21344.00
2019-05-01T09:24:46.741Z,21056.00
2019-05-01T09:25:45.727Z,21216.00
2019-05-01T09:26:50.262Z,21952.00
2019-05-01T09:27:46.685Z,23136.00
2019-05-01T09:28:45.669Z,24544.00
2019-05-01T09:29:46.836Z,26080.00
2019-05-01T09:30:46.640Z,27840.00
2019-05-01T09:31:45.637Z,29504.00
2019-05-01T09:32:53.945Z,30976.00
2019-05-01T09:33:46.613Z,32288.00
2019-05-01T09:34:45.636Z,31008.00
2019-05-01T09:35:46.731Z,28992.00
2019-05-01T09:36:45.587Z,27968.00
2019-05-01T09:37:45.566Z,28064.00
2019-05-01T09:38:45.549Z,28352.00
2019-05-01T09:39:47.323Z,28160.00
2019-05-01T09:40:45.551Z,27552.00
2019-05-01T09:41:47.500Z,26816.00
2019-05-01T09:42:45.503Z,27424.00
2019-05-01T09:43:45.522Z,28384.00
2019-05-01T09:44:45.576Z,28800.00
2019-05-01T09:45:45.531Z,29408.00
2019-05-01T09:46:45.461Z,29376.00
2019-05-01T09:47:45.523Z,28992.00
2019-05-01T09:48:45.444Z,28864.00
2019-05-01T09:49:48.740Z,28000.00
2019-05-01T09:50:46.438Z,26848.00
2019-05-01T09:51:47.484Z,26400.00
2019-05-01T09:52:45.439Z,26560.00
2019-05-01T09:53:45.383Z,26752.00
2019-05-01T09:54:46.769Z,27072.00
2019-05-01T09:55:45.351Z,28192.00
2019-05-01T09:56:45.363Z,31648.00
2019-05-01T09:57:45.347Z,37440.00
2019-05-01T09:58:45.326Z,41056.00
2019-05-01T09:59:45.343Z,40128.00
2019-05-01T10:00:48.836Z,34208.00
2019-05-01T10:01:46.372Z,32352.00
2019-05-01T10:02:45.321Z,32128.00
2019-05-01T10:03:49.438Z,33088.00
2019-05-01T10:04:46.319Z,34976.00
2019-05-01T10:05:45.263Z,36960.00
2019-05-01T10:06:47.765Z,35968.00
2019-05-01T10:07:46.255Z,34400.00
2019-05-01T10:08:45.228Z,32960.00
2019-05-01T10:09:47.301Z,32704.00
2019-05-01T10:10:46.195Z,33184.00
2019-05-01T10:11:45.195Z,32928.00
2019-05-01T10:12:47.017Z,32672.00
2019-05-01T10:13:45.215Z,33152.00
2019-05-01T10:14:45.829Z,33536.00
2019-05-01T10:15:45.232Z,34176.00
2019-05-01T10:16:45.181Z,35104.00
2019-05-01T10:17:45.122Z,35840.00
2019-05-01T10:18:45.122Z,35680.00
2019-05-01T10:19:45.201Z,34816.00
2019-05-01T10:20:45.096Z,34272.00
2019-05-01T10:21:45.087Z,35136.00
2019-05-01T10:22:45.103Z,35552.00
2019-05-01T10:23:47.163Z,34592.00
2019-05-01T10:24:46.114Z,34784.00
2019-05-01T10:25:47.893Z,36416.00
2019-05-01T10:26:45.034Z,39008.00
2019-05-01T10:27:45.066Z,43168.00
2019-05-01T10:28:49.529Z,47808.00
2019-05-01T10:29:46.037Z,54944.00
2019-05-01T10:30:45.007Z,48672.00
2019-05-01T10:31:46.666Z,45088.00
2019-05-01T10:32:45.003Z,39200.00
2019-05-01T10:33:44.952Z,37280.00
2019-05-01T10:34:44.927Z,36768.00
2019-05-01T10:35:45.036Z,36928.00
2019-05-01T10:36:44.910Z,37280.00
2019-05-01T10:37:44.905Z,38784.00
2019-05-01T10:38:46.841Z,41504.00
2019-05-01T10:39:44.941Z,41568.00
2019-05-01T10:40:44.883Z,39200.00
2019-05-01T10:41:46.436Z,37216.00
2019-05-01T10:42:44.947Z,35872.00
2019-05-01T10:43:44.982Z,35520.00
2019-05-01T10:44:44.981Z,36416.00
2019-05-01T10:45:44.982Z,38976.00
2019-05-01T10:46:44.877Z,43392.00
2019-05-01T10:47:44.797Z,44960.00
2019-05-01T10:48:44.867Z,45120.00
2019-05-01T10:49:44.796Z,51520.00
2019-05-01T10:50:44.915Z,51936.00
2019-05-01T10:51:44.790Z,57920.00
2019-05-01T10:52:44.765Z,72672.00
2019-05-01T10:53:44.726Z,82528.00
2019-05-01T10:54:46.542Z,89152.00
2019-05-01T10:55:44.793Z,59648.00
2019-05-01T10:56:44.777Z,59808.00
2019-05-01T10:57:44.715Z,59168.00
2019-05-01T10:58:44.821Z,54944.00
2019-05-01T10:59:44.659Z,53088.00
2019-05-01T11:00:44.687Z,51104.00
2019-05-01T11:01:44.779Z,90656.00
2019-05-01T11:02:44.688Z,119712.00
2019-05-01T11:03:45.220Z,115520.00
2019-05-01T11:04:44.609Z,77664.00
2019-05-01T11:05:55.220Z,87712.00
2019-05-01T11:06:45.581Z,111264.00
2019-05-01T11:07:44.799Z,103648.00
2019-05-01T11:08:44.710Z,51840.00
2019-05-01T11:09:44.537Z,71936.00
2019-05-01T11:10:44.722Z,42336.00
2019-05-01T11:11:44.593Z,47232.00
2019-05-01T11:12:44.594Z,103904.00
2019-05-01T11:13:44.503Z,93056.00
2019-05-01T11:14:44.799Z,96960.00
2019-05-01T11:15:44.520Z,98592.00
2019-05-01T11:16:44.615Z,117760.00
2019-05-01T11:17:44.453Z,118432.00
2019-05-01T11:18:44.507Z,113664.00
2019-05-01T11:19:44.499Z,116608.00
2019-05-01T11:20:44.504Z,111200.00
2019-05-01T11:21:44.456Z,86752.00
2019-05-01T11:22:44.411Z,107936.00
2019-05-01T11:23:44.621Z,65152.00
2019-05-01T11:24:44.387Z,104512.00
2019-05-01T11:25:44.690Z,116128.00
2019-05-01T11:26:45.219Z,111936.00
2019-05-01T11:27:44.373Z,111712.00
2019-05-01T11:28:44.369Z,119872.00
2019-05-01T11:29:44.759Z,117856.00
2019-05-01T11:30:44.348Z,112576.00
2019-05-01T11:31:44.323Z,75872.00
2019-05-01T11:32:44.316Z,58400.00
2019-05-01T11:33:44.288Z,49728.00
2019-05-01T11:34:44.271Z,49536.00
2019-05-01T11:35:44.382Z,53248.00
2019-05-01T11:36:44.257Z,86464.00
2019-05-01T11:37:44.241Z,107712.00
2019-05-01T11:38:44.259Z,119936.00
2019-05-01T11:39:44.229Z,117440.00
2019-05-01T11:40:44.270Z,116704.00
2019-05-01T11:41:44.236Z,96864.00
2019-05-01T11:42:44.309Z,70144.00
2019-05-01T11:43:44.238Z,71264.00
2019-05-01T11:44:44.188Z,62816.00
2019-05-01T11:45:44.265Z,85568.00
2019-05-01T11:46:44.230Z,117696.00
2019-05-01T11:47:44.143Z,93248.00
2019-05-01T11:48:44.650Z,105984.00
2019-05-01T11:49:44.159Z,50112.00
2019-05-01T11:50:44.362Z,51072.00
2019-05-01T11:51:45.728Z,41440.00
2019-05-01T11:52:44.074Z,35392.00
2019-05-01T11:53:44.062Z,33088.00
2019-05-01T11:54:44.073Z,32032.00
2019-05-01T11:55:44.053Z,30496.00
2019-05-01T11:56:44.124Z,29440.00
2019-05-01T11:57:44.023Z,29696.00
2019-05-01T11:58:44.244Z,30304.00
2019-05-01T11:59:43.995Z,31936.00
2019-05-01T12:00:44.171Z,33088.00
2019-05-01T12:01:44.085Z,34976.00
2019-05-01T12:02:44.121Z,33952.00
2019-05-01T12:03:44.057Z,33792.00
2019-05-01T12:04:43.948Z,36320.00
2019-05-01T12:05:43.951Z,49216.00
2019-05-01T12:06:44.110Z,56000.00
2019-05-01T12:07:44.201Z,67904.00
2019-05-01T12:08:43.975Z,57184.00
2019-05-01T12:09:43.924Z,51104.00
2019-05-01T12:10:43.971Z,42432.00
2019-05-01T12:11:43.975Z,36608.00
2019-05-01T12:12:43.857Z,35168.00
2019-05-01T12:13:44.247Z,35936.00
2019-05-01T12:14:43.897Z,37920.00
2019-05-01T12:15:43.911Z,40864.00
2019-05-01T12:16:43.961Z,58016.00
2019-05-01T12:17:44.028Z,68736.00
2019-05-01T12:18:43.873Z,58752.00
2019-05-01T12:19:43.788Z,107200.00